Terminal Aerodrome Forecast
Issued by NWS

Home | Current Version | Previous Version | Text Only | Print | Product List | Glossary On
Versions: 1 2 3 4 5 6 7 8 9 10 11 12 13 14 15 16 17 18 19 20 21 22 23
000
FTUS45 KBOU 082106 AAB
TAFBJC
TAF AMD
KBJC 082106Z 0821/0918 35010KT P6SM SCT100 BKN220
     FM090000 32011KT P6SM SCT220
     FM090500 26008KT P6SM FEW220=

USA.gov is the U.S. government's official web portal to all federal, state and local government web resources and services.